createdAt,value
2023-02-19T00:01:44.291Z,9.50
2023-02-19T00:04:18.848Z,9.60
2023-02-19T00:06:46.826Z,9.60
2023-02-19T00:09:15.711Z,9.60
2023-02-19T00:11:43.021Z,9.60
2023-02-19T00:14:14.682Z,9.60
2023-02-19T00:16:41.410Z,9.60
2023-02-19T00:19:12.631Z,9.60
2023-02-19T00:21:39.327Z,9.70
2023-02-19T00:24:08.216Z,9.60
2023-02-19T00:26:35.305Z,9.70
2023-02-19T00:29:02.321Z,9.70
2023-02-19T00:31:33.523Z,9.70
2023-02-19T00:34:05.533Z,9.70
2023-02-19T00:36:36.221Z,9.80
2023-02-19T00:39:04.710Z,9.80
2023-02-19T00:41:31.698Z,9.80
2023-02-19T00:44:00.848Z,9.80
2023-02-19T00:46:40.163Z,9.80
2023-02-19T00:49:08.439Z,9.90
2023-02-19T00:51:37.799Z,9.90
2023-02-19T00:54:05.517Z,9.90
2023-02-19T00:56:33.005Z,9.90
2023-02-19T00:58:59.849Z,9.90
2023-02-19T01:01:26.622Z,9.90
2023-02-19T01:03:53.454Z,9.90
2023-02-19T01:06:22.992Z,9.90
2023-02-19T01:08:50.531Z,9.90
2023-02-19T01:11:18.524Z,9.90
2023-02-19T01:13:45.243Z,9.90
2023-02-19T01:16:19.006Z,9.90
2023-02-19T01:18:47.670Z,9.80
2023-02-19T01:21:20.382Z,9.90
2023-02-19T01:23:48.034Z,9.80
2023-02-19T01:26:17.445Z,9.80
2023-02-19T01:28:44.624Z,9.80
2023-02-19T01:31:16.203Z,9.80
2023-02-19T01:33:48.343Z,9.80
2023-02-19T01:36:15.933Z,9.80
2023-02-19T01:38:43.177Z,9.80
2023-02-19T01:41:13.693Z,9.80
2023-02-19T01:43:59.134Z,9.80
2023-02-19T01:46:31.337Z,9.80
2023-02-19T01:49:01.345Z,9.80
2023-02-19T01:51:29.464Z,9.70
2023-02-19T01:53:59.447Z,9.80
2023-02-19T01:56:28.730Z,9.70
2023-02-19T01:58:55.494Z,9.70
2023-02-19T02:01:22.208Z,9.70
2023-02-19T02:03:49.856Z,9.70
2023-02-19T02:06:30.647Z,9.70
2023-02-19T02:09:17.072Z,9.70
2023-02-19T02:11:49.827Z,9.70
2023-02-19T02:14:27.451Z,9.60
2023-02-19T02:17:13.738Z,9.70
2023-02-19T02:19:52.472Z,9.60
2023-02-19T02:22:25.507Z,9.60
2023-02-19T02:25:33.571Z,9.60
2023-02-19T02:28:18.300Z,9.60
2023-02-19T02:30:49.487Z,9.60
2023-02-19T02:33:29.383Z,9.60
2023-02-19T02:36:21.973Z,9.60
2023-02-19T02:38:49.437Z,9.60
2023-02-19T02:41:16.272Z,9.60
2023-02-19T02:43:43.057Z,9.60
2023-02-19T02:46:11.688Z,9.60
2023-02-19T02:48:53.809Z,9.60
2023-02-19T02:51:29.897Z,9.60
2023-02-19T02:54:25.228Z,9.60
2023-02-19T02:56:53.736Z,9.60
2023-02-19T02:59:23.669Z,9.60
2023-02-19T03:02:14.142Z,9.60
2023-02-19T03:05:28.258Z,9.60
2023-02-19T03:08:04.962Z,9.60
2023-02-19T03:10:50.210Z,9.60
2023-02-19T03:13:43.873Z,9.50
2023-02-19T03:16:58.096Z,9.50
2023-02-19T03:19:27.695Z,9.50
2023-02-19T03:22:10.278Z,9.50
2023-02-19T03:25:01.602Z,9.50
2023-02-19T03:27:32.154Z,9.50
2023-02-19T03:30:04.879Z,9.50
2023-02-19T03:32:37.449Z,9.50
2023-02-19T03:35:11.216Z,9.40
2023-02-19T03:37:45.324Z,9.40
2023-02-19T03:40:13.126Z,9.40
2023-02-19T03:42:43.665Z,9.40
2023-02-19T03:45:25.527Z,9.40
2023-02-19T03:48:25.150Z,9.40
2023-02-19T03:51:16.468Z,9.40
2023-02-19T03:54:08.859Z,9.30
2023-02-19T03:56:41.482Z,9.30
2023-02-19T03:59:35.147Z,9.30
2023-02-19T04:02:19.356Z,9.30
2023-02-19T04:04:51.022Z,9.30
2023-02-19T04:07:18.009Z,9.30
2023-02-19T04:09:48.204Z,9.30
2023-02-19T04:12:16.691Z,9.30
2023-02-19T04:14:46.604Z,9.30
2023-02-19T04:17:21.310Z,9.30
2023-02-19T04:19:51.294Z,9.30
2023-02-19T04:22:19.143Z,9.30
2023-02-19T04:24:51.981Z,9.20
2023-02-19T04:27:19.239Z,9.30
2023-02-19T04:29:46.110Z,9.20
2023-02-19T04:32:13.882Z,9.20
2023-02-19T04:34:40.549Z,9.20
2023-02-19T04:37:08.017Z,9.20
2023-02-19T04:39:34.822Z,9.20
2023-02-19T04:42:01.506Z,9.10
2023-02-19T04:44:28.482Z,9.10
2023-02-19T04:46:55.359Z,9.10
2023-02-19T04:49:22.139Z,9.20
2023-02-19T04:51:48.812Z,9.10
2023-02-19T04:54:15.508Z,9.10
2023-02-19T04:56:42.227Z,9.10
2023-02-19T04:59:09.268Z,9.10
2023-02-19T05:01:36.040Z,9.10
2023-02-19T05:04:04.588Z,9.10
2023-02-19T05:06:31.267Z,9.10
2023-02-19T05:08:57.984Z,9.10
2023-02-19T05:11:24.863Z,9.10
2023-02-19T05:13:51.874Z,9.10
2023-02-19T05:16:18.580Z,9.10
2023-02-19T05:18:46.569Z,9.10
2023-02-19T05:21:13.871Z,9.00
2023-02-19T05:23:41.288Z,9.10
2023-02-19T05:26:10.001Z,9.00
2023-02-19T05:28:36.831Z,9.00
2023-02-19T05:31:08.906Z,9.00
2023-02-19T05:33:36.989Z,9.00
2023-02-19T05:36:09.922Z,9.00
2023-02-19T05:38:37.348Z,9.00
2023-02-19T05:41:12.061Z,9.00
2023-02-19T05:43:40.058Z,9.00
2023-02-19T05:46:07.749Z,9.00
2023-02-19T05:48:34.747Z,9.00
2023-02-19T05:51:06.503Z,9.00
2023-02-19T05:53:33.485Z,9.00
2023-02-19T05:56:00.398Z,9.00
2023-02-19T05:58:28.183Z,9.00
2023-02-19T06:00:55.600Z,9.00
2023-02-19T06:03:22.948Z,9.00
2023-02-19T06:05:49.651Z,9.00
2023-02-19T06:08:16.495Z,9.00
2023-02-19T06:10:43.801Z,9.00
2023-02-19T06:13:10.851Z,9.00
2023-02-19T06:15:38.305Z,8.90
2023-02-19T06:18:05.026Z,8.90
2023-02-19T06:20:32.940Z,8.90
2023-02-19T06:22:59.689Z,8.90
2023-02-19T06:25:26.386Z,8.90
2023-02-19T06:27:53.056Z,8.90
2023-02-19T06:30:20.004Z,8.90
2023-02-19T06:32:46.738Z,9.00
2023-02-19T06:35:13.424Z,9.00
2023-02-19T06:37:40.090Z,8.90
2023-02-19T06:40:07.354Z,8.90
2023-02-19T06:42:34.051Z,8.90
2023-02-19T06:45:00.701Z,8.90
2023-02-19T06:47:31.688Z,8.90
2023-02-19T06:49:59.021Z,8.90
2023-02-19T06:52:26.926Z,8.80
2023-02-19T06:54:53.999Z,8.80
2023-02-19T06:57:20.721Z,8.80
2023-02-19T06:59:47.383Z,8.80
2023-02-19T07:02:14.135Z,8.80
2023-02-19T07:04:40.942Z,8.80
2023-02-19T07:07:11.897Z,8.80
2023-02-19T07:09:38.572Z,8.80
2023-02-19T07:12:05.728Z,8.80
2023-02-19T07:14:32.504Z,8.80
2023-02-19T07:16:59.213Z,8.80
2023-02-19T07:19:25.882Z,8.80
2023-02-19T07:21:52.556Z,8.80
2023-02-19T07:24:21.441Z,8.80
2023-02-19T07:26:48.290Z,8.80
2023-02-19T07:29:14.942Z,8.70
2023-02-19T07:31:42.658Z,8.80
2023-02-19T07:34:09.348Z,8.80
2023-02-19T07:36:36.157Z,8.80
2023-02-19T07:39:02.977Z,8.80
2023-02-19T07:41:29.690Z,8.80
2023-02-19T07:43:56.369Z,8.80
2023-02-19T07:46:23.811Z,8.80
2023-02-19T07:48:50.504Z,8.70
2023-02-19T07:51:19.447Z,8.70
2023-02-19T07:53:47.021Z,8.70
2023-02-19T07:56:14.382Z,8.70
2023-02-19T07:58:41.418Z,8.70
2023-02-19T08:01:11.001Z,8.40
2023-02-19T08:03:38.809Z,8.20
2023-02-19T08:06:06.215Z,8.00
2023-02-19T08:08:32.994Z,7.70
2023-02-19T08:11:21.898Z,7.60
2023-02-19T08:13:50.142Z,7.50
2023-02-19T08:16:29.582Z,7.50
2023-02-19T08:19:00.230Z,7.40
2023-02-19T08:21:27.146Z,7.30
2023-02-19T08:23:54.089Z,7.20
